Time;durP1;ratioP1;P1;durP2;ratioP2;P2;SDS_P1;SDS_P2;PMS_P1;PMS_P2;Temp;Humidity;BMP_temperature;BMP_pressure;BME280_temperature;BME280_humidity;BME280_pressure;Samples;Min_cycle;Max_cycle;Signal;HPM_P1;HPM_P2
2021/06/01 00:01:46;;;;;;;17.45;8.40;;;;;;;10.41;58.38;99196.86;125547;1104;103000;-75
2021/06/01 00:04:17;;;;;;;21.63;9.10;;;;;;;10.37;58.18;99199.81;125477;1104;103115;-74
2021/06/01 00:06:46;;;;;;;20.93;9.20;;;;;;;10.34;58.25;99197.37;125505;1104;102981;-74
2021/06/01 00:09:20;;;;;;;22.00;9.83;;;;;;;10.31;58.17;99201.11;125500;1096;102979;-74
2021/06/01 00:11:50;;;;;;;22.50;8.57;;;;;;;10.28;58.39;99196.00;125636;1104;102983;-75
2021/06/01 00:14:19;;;;;;;20.10;8.90;;;;;;;10.24;58.48;99198.00;125590;1104;103072;-78
2021/06/01 00:16:50;;;;;;;22.20;9.23;;;;;;;10.22;58.51;99194.59;125479;1096;103112;-75
2021/06/01 00:19:18;;;;;;;20.93;8.93;;;;;;;10.20;58.65;99200.99;125526;1104;103008;-75
2021/06/01 00:21:48;;;;;;;19.80;8.50;;;;;;;10.17;58.62;99194.09;125586;1096;103056;-73
2021/06/01 00:24:17;;;;;;;19.73;8.40;;;;;;;10.13;58.62;99198.75;125527;1104;102984;-73
2021/06/01 00:26:46;;;;;;;18.50;8.07;;;;;;;10.09;58.55;99199.91;125517;1096;103055;-73
2021/06/01 00:29:14;;;;;;;22.97;9.07;;;;;;;10.05;58.75;99200.24;125545;1104;103212;-75
2021/06/01 00:31:43;;;;;;;21.67;8.47;;;;;;;10.02;58.75;99200.45;125568;1104;103075;-75
2021/06/01 00:34:12;;;;;;;20.73;8.73;;;;;;;9.98;58.88;99199.82;125544;1104;102984;-75
2021/06/01 00:36:41;;;;;;;18.90;8.33;;;;;;;9.91;58.87;99201.19;125558;1096;102981;-75
2021/06/01 00:39:10;;;;;;;21.33;9.17;;;;;;;9.88;59.08;99194.26;125534;1104;103075;-75
2021/06/01 00:41:38;;;;;;;19.53;8.77;;;;;;;9.85;59.00;99199.78;125546;1104;103152;-78
2021/06/01 00:44:07;;;;;;;20.73;8.90;;;;;;;9.81;59.16;99193.84;125551;1104;103096;-78
2021/06/01 00:46:37;;;;;;;19.80;9.30;;;;;;;9.81;59.18;99191.18;125541;1096;102997;-78
2021/06/01 00:49:05;;;;;;;19.43;8.37;;;;;;;9.82;59.15;99194.67;125521;1104;102994;-79
2021/06/01 00:51:33;;;;;;;19.63;9.07;;;;;;;9.81;59.23;99191.18;125569;1096;103641;-77
2021/06/01 00:54:03;;;;;;;17.87;7.77;;;;;;;9.82;59.14;99197.33;125569;1104;103080;-78
2021/06/01 00:56:33;;;;;;;21.67;9.03;;;;;;;9.82;59.38;99189.36;125540;1096;103075;-78
2021/06/01 00:59:01;;;;;;;20.63;8.37;;;;;;;9.83;59.63;99183.09;125587;1104;103098;-77
2021/06/01 01:01:31;;;;;;;23.00;9.77;;;;;;;9.82;59.41;99184.91;125562;1104;103081;-77
2021/06/01 01:04:00;;;;;;;21.73;8.60;;;;;;;9.80;59.40;99184.16;125538;1096;103077;-78
2021/06/01 01:06:46;;;;;;;22.87;8.83;;;;;;;9.79;59.54;99181.59;125551;1104;103177;-78
2021/06/01 01:09:17;;;;;;;21.97;8.30;;;;;;;9.76;59.73;99173.86;125569;1104;103072;-78
2021/06/01 01:11:58;;;;;;;17.13;7.73;;;;;;;9.74;59.70;99176.61;125710;1104;103019;-80
2021/06/01 01:14:37;;;;;;;19.30;7.90;;;;;;;9.72;59.69;99177.67;125694;1104;103041;-78
2021/06/01 01:17:51;;;;;;;20.27;8.20;;;;;;;9.71;59.89;99174.16;125724;1104;103065;-79
2021/06/01 01:20:37;;;;;;;19.13;7.97;;;;;;;9.68;59.92;99175.23;125530;1104;102713;-77
2021/06/01 01:23:21;;;;;;;17.83;7.83;;;;;;;9.68;59.88;99179.67;125469;1104;103104;-79
2021/06/01 01:25:49;;;;;;;21.30;8.03;;;;;;;9.63;59.74;99174.68;125500;1096;103134;-77
2021/06/01 01:28:35;;;;;;;17.83;7.60;;;;;;;9.62;59.78;99175.63;125552;1104;103014;-76
2021/06/01 01:31:13;;;;;;;18.07;8.53;;;;;;;9.60;59.88;99176.67;125603;1104;102991;-79
2021/06/01 01:33:43;;;;;;;18.33;8.33;;;;;;;9.59;60.13;99177.63;125549;1104;103062;-79
2021/06/01 01:36:14;;;;;;;21.67;8.23;;;;;;;9.56;59.96;99178.70;125542;1104;103120;-79
2021/06/01 01:38:44;;;;;;;20.83;8.50;;;;;;;9.54;60.00;99177.94;125473;1104;103083;-78
2021/06/01 01:41:15;;;;;;;20.73;8.30;;;;;;;9.53;60.00;99178.90;125469;1104;103086;-79
2021/06/01 01:43:50;;;;;;;16.97;8.00;;;;;;;9.51;60.25;99181.67;125497;1104;103108;-78
2021/06/01 01:46:35;;;;;;;17.13;7.93;;;;;;;9.49;59.99;99182.70;125488;1104;103085;-77
2021/06/01 01:49:05;;;;;;;17.30;7.27;;;;;;;9.47;60.46;99181.95;125573;1104;103441;-76
2021/06/01 01:51:37;;;;;;;18.43;8.17;;;;;;;9.46;60.27;99180.25;125595;1104;103466;-74
2021/06/01 01:54:11;;;;;;;18.13;8.60;;;;;;;9.45;60.49;99183.86;125568;1104;102956;-75
2021/06/01 01:56:43;;;;;;;21.58;9.10;;;;;;;9.45;60.21;99183.86;125605;1104;103039;-75
2021/06/01 01:59:17;;;;;;;18.20;8.00;;;;;;;9.43;60.37;99189.29;125573;1104;103116;-75
2021/06/01 02:01:51;;;;;;;19.10;8.58;;;;;;;9.42;60.46;99176.09;125542;1104;103543;-76
2021/06/01 02:04:26;;;;;;;20.03;8.13;;;;;;;9.39;60.49;99180.66;125627;1096;102985;-76
2021/06/01 02:06:57;;;;;;;19.23;8.67;;;;;;;9.40;60.71;99181.52;125530;1096;103115;-76
2021/06/01 02:09:29;;;;;;;21.13;7.63;;;;;;;9.37;60.75;99179.06;125650;1104;103080;-76
2021/06/01 02:11:57;;;;;;;24.77;8.80;;;;;;;9.38;60.59;99178.12;125593;1096;103011;-76
2021/06/01 02:14:29;;;;;;;19.63;8.80;;;;;;;9.36;60.59;99180.89;125510;1104;103110;-75
2021/06/01 02:16:58;;;;;;;21.83;9.00;;;;;;;9.35;60.71;99184.49;125580;1104;103066;-76
2021/06/01 02:19:27;;;;;;;18.40;8.30;;;;;;;9.34;60.68;99180.14;125457;1104;103147;-76
2021/06/01 02:22:17;;;;;;;20.30;9.53;;;;;;;9.34;61.02;99185.45;125517;1104;103214;-75
2021/06/01 02:25:05;;;;;;;20.83;8.80;;;;;;;9.33;60.89;99185.53;125532;1096;103569;-76
2021/06/01 02:27:50;;;;;;;29.43;8.87;;;;;;;9.30;60.81;99177.77;125532;1096;102990;-75
2021/06/01 02:30:25;;;;;;;18.80;8.57;;;;;;;9.28;60.77;99179.66;125585;1104;103384;-75
2021/06/01 02:32:59;;;;;;;18.83;8.53;;;;;;;9.27;60.97;99180.62;125570;1104;103027;-76
2021/06/01 02:35:34;;;;;;;;;;;;;;;9.23;61.27;99190.59;125637;1104;103062;-77
2021/06/01 02:38:06;;;;;;;21.60;9.73;;;;;;;9.17;60.90;99183.86;125628;1104;103139;-77
2021/06/01 02:40:36;;;;;;;19.47;8.17;;;;;;;9.15;61.25;99182.28;125590;1104;103062;-76
2021/06/01 02:43:11;;;;;;;21.07;9.20;;;;;;;9.12;61.11;99178.03;125661;1104;103201;-74
2021/06/01 02:45:42;;;;;;;19.87;9.00;;;;;;;9.08;61.01;99190.63;125572;1104;102990;-78
2021/06/01 02:48:14;;;;;;;20.50;9.13;;;;;;;9.04;61.18;99183.81;125540;1104;103112;-78
2021/06/01 02:50:45;;;;;;;21.80;9.40;;;;;;;9.03;61.29;99183.93;125573;1104;104494;-76
2021/06/01 02:53:16;;;;;;;20.70;8.57;;;;;;;9.01;61.39;99184.02;125541;1104;103090;-78
2021/06/01 02:55:44;;;;;;;19.90;8.47;;;;;;;9.00;61.30;99189.43;125555;1104;102990;-78
2021/06/01 02:58:15;;;;;;;20.93;10.00;;;;;;;8.97;61.20;99185.16;125597;1104;103112;-74
2021/06/01 03:00:46;;;;;;;22.03;10.07;;;;;;;8.95;61.22;99189.73;125581;1104;103016;-77
2021/06/01 03:03:15;;;;;;;22.57;10.10;;;;;;;8.92;61.26;99190.77;125557;1096;104481;-76
2021/06/01 03:05:43;;;;;;;22.83;10.13;;;;;;;8.90;61.39;99187.36;125536;1104;102997;-76
2021/06/01 03:08:28;;;;;;;19.33;9.43;;;;;;;8.90;61.20;99191.83;125539;1104;103015;-76
2021/06/01 03:11:04;;;;;;;19.37;9.07;;;;;;;8.90;61.65;99189.18;125545;1096;103448;-76
2021/06/01 03:13:32;;;;;;;21.50;10.07;;;;;;;8.88;61.72;99189.26;125612;1104;103016;-76
2021/06/01 03:16:01;;;;;;;22.87;9.20;;;;;;;8.87;61.70;99184.06;125561;1104;103156;-76
2021/06/01 03:18:30;;;;;;;23.57;9.77;;;;;;;8.88;61.54;99185.77;125501;1104;103012;-76
2021/06/01 03:20:59;;;;;;;21.40;9.53;;;;;;;8.87;61.77;99184.91;125585;1096;102984;-76
2021/06/01 03:23:29;;;;;;;19.67;8.27;;;;;;;8.87;61.89;99184.06;125457;1104;103113;-77
2021/06/01 03:25:58;;;;;;;24.90;10.20;;;;;;;8.88;61.78;99193.73;125534;1102;103059;-76
2021/06/01 03:28:27;;;;;;;19.90;9.20;;;;;;;8.87;61.72;99192.86;125519;1104;103128;-78
2021/06/01 03:30:56;;;;;;;19.40;9.13;;;;;;;8.89;61.88;99193.61;125505;1104;103007;-77
2021/06/01 03:33:29;;;;;;;29.37;10.00;;;;;;;8.91;62.09;99193.53;125563;1104;103122;-77
2021/06/01 03:35:58;;;;;;;20.83;9.20;;;;;;;8.93;62.22;99186.33;125526;1104;103059;-77
2021/06/01 03:38:27;;;;;;;20.27;9.33;;;;;;;8.94;61.78;99188.88;125561;1097;103112;-78
2021/06/01 03:40:55;;;;;;;20.60;9.77;;;;;;;8.96;62.03;99190.58;125538;1104;103138;-82
2021/06/01 03:43:23;;;;;;;23.57;9.87;;;;;;;8.94;61.80;99194.18;125565;1104;103091;-80
2021/06/01 03:45:52;;;;;;;20.93;9.90;;;;;;;8.97;61.94;99200.23;125563;1104;102995;-81
2021/06/01 03:48:20;;;;;;;19.43;8.97;;;;;;;8.98;62.05;99193.98;125532;1104;103005;-78
2021/06/01 03:50:49;;;;;;;23.37;9.77;;;;;;;8.96;62.21;99194.09;125547;1104;103135;-78
2021/06/01 03:53:18;;;;;;;20.57;9.03;;;;;;;8.98;62.28;99192.16;125516;1104;103119;-77
2021/06/01 03:55:46;;;;;;;21.27;9.50;;;;;;;9.01;62.28;99191.13;125526;1104;103014;-77
2021/06/01 03:58:15;;;;;;;22.63;9.93;;;;;;;9.03;62.28;99195.38;125550;1105;103073;-78
2021/06/01 04:00:44;;;;;;;21.73;9.50;;;;;;;9.06;62.21;99191.70;125577;1104;103062;-76
2021/06/01 04:03:13;;;;;;;22.03;9.97;;;;;;;9.07;62.21;99188.09;125643;1104;102985;-78
2021/06/01 04:05:41;;;;;;;21.27;9.90;;;;;;;9.11;62.33;99191.38;125554;1104;103122;-73
2021/06/01 04:08:10;;;;;;;20.70;10.10;;;;;;;9.11;62.49;99186.95;125521;1096;102991;-74
2021/06/01 04:10:38;;;;;;;20.67;9.63;;;;;;;9.11;62.61;99192.25;125566;1104;103103;-73
2021/06/01 04:13:06;;;;;;;21.97;9.57;;;;;;;9.14;62.40;99191.19;125503;1104;103145;-74
2021/06/01 04:15:35;;;;;;;22.27;9.83;;;;;;;9.18;62.56;99187.39;125580;1096;103083;-74
2021/06/01 04:18:05;;;;;;;23.10;10.57;;;;;;;9.21;62.75;99190.68;125575;1104;103133;-74
2021/06/01 04:20:33;;;;;;;22.10;9.77;;;;;;;9.24;62.48;99194.95;125532;1104;103084;-74
2021/06/01 04:23:02;;;;;;;22.07;10.00;;;;;;;9.28;62.65;99192.94;125530;1096;103019;-77
2021/06/01 04:25:30;;;;;;;20.10;9.63;;;;;;;9.30;62.80;99191.03;125552;1104;102991;-77
2021/06/01 04:27:59;;;;;;;23.60;10.67;;;;;;;9.34;62.91;99187.23;125549;1100;102992;-77
2021/06/01 04:30:27;;;;;;;24.50;11.10;;;;;;;9.39;62.65;99190.44;125565;1104;103014;-78
2021/06/01 04:32:56;;;;;;;23.95;11.65;;;;;;;9.42;62.85;99192.02;125515;1104;103017;-77
2021/06/01 04:35:25;;;;;;;25.40;10.43;;;;;;;9.46;62.69;99191.73;125566;1104;103016;-75
2021/06/01 04:37:54;;;;;;;23.90;10.90;;;;;;;9.53;62.65;99195.70;125556;1104;102993;-79
2021/06/01 04:40:23;;;;;;;22.63;10.30;;;;;;;9.57;62.82;99192.84;125573;1104;102987;-74
2021/06/01 04:42:52;;;;;;;21.73;9.53;;;;;;;9.62;62.87;99196.02;125567;1104;102986;-74
2021/06/01 04:45:21;;;;;;;24.93;11.17;;;;;;;9.67;63.10;99196.56;125525;1104;103027;-73
2021/06/01 04:47:51;;;;;;;22.17;10.53;;;;;;;9.72;63.19;99198.92;125530;1096;103068;-74
2021/06/01 04:50:20;;;;;;;23.10;10.20;;;;;;;9.78;63.24;99196.70;125469;1104;103149;-74
2021/06/01 04:52:49;;;;;;;22.63;10.33;;;;;;;9.83;63.29;99191.93;125631;1104;102981;-73
2021/06/01 04:55:19;;;;;;;18.97;9.30;;;;;;;9.89;63.19;99195.97;125585;1104;103227;-72
2021/06/01 04:57:47;;;;;;;21.40;10.07;;;;;;;9.94;63.20;99187.70;125530;1104;103077;-73
2021/06/01 05:00:17;;;;;;;22.57;9.47;;;;;;;9.98;63.22;99189.20;125549;1104;103056;-72
2021/06/01 05:02:45;;;;;;;20.20;10.10;;;;;;;10.05;63.27;99198.42;125564;1096;103016;-72
2021/06/01 05:05:15;;;;;;;21.43;10.67;;;;;;;10.09;63.26;99191.94;125525;1104;103460;-71
2021/06/01 05:07:43;;;;;;;22.93;9.53;;;;;;;10.16;63.28;99196.84;125555;1097;103139;-71
2021/06/01 05:10:12;;;;;;;23.13;10.57;;;;;;;10.22;63.34;99199.08;125558;1096;103051;-73
2021/06/01 05:12:40;;;;;;;18.27;9.13;;;;;;;10.28;63.23;99194.17;125523;1104;103073;-73
2021/06/01 05:15:12;;;;;;;20.73;9.57;;;;;;;10.34;63.34;99197.37;125542;1104;103015;-73
2021/06/01 05:17:41;;;;;;;19.90;8.13;;;;;;;10.39;63.27;99196.11;125586;1104;102979;-73
2021/06/01 05:20:10;;;;;;;23.57;9.17;;;;;;;10.45;63.28;99200.17;125594;1104;103053;-73
2021/06/01 05:22:39;;;;;;;18.67;7.90;;;;;;;10.52;63.38;99201.44;125518;1104;103460;-72
2021/06/01 05:25:09;;;;;;;49.20;29.30;;;;;;;10.58;63.43;99205.47;125566;1104;103016;-75
2021/06/01 05:27:38;;;;;;;26.73;13.93;;;;;;;10.63;63.33;99199.81;125558;1096;103101;-74
2021/06/01 05:30:08;;;;;;;22.47;9.43;;;;;;;10.69;63.55;99210.89;125552;1104;103067;-73
2021/06/01 05:35:28;;;;;;;19.05;8.60;;;;;;;10.81;63.54;99198.52;125593;1104;103072;-72
2021/06/01 05:37:56;;;;;;;16.00;7.47;;;;;;;10.90;63.29;99204.14;125642;1104;103537;-72
2021/06/01 05:40:25;;;;;;;19.67;7.97;;;;;;;10.99;63.43;99209.64;125561;1100;102991;-72
2021/06/01 05:42:54;;;;;;;19.60;8.10;;;;;;;11.11;63.26;99209.72;125547;1096;103006;-72
2021/06/01 05:45:22;;;;;;;18.77;7.73;;;;;;;11.25;63.37;99214.03;125534;1096;103086;-73
2021/06/01 05:47:50;;;;;;;19.85;7.20;;;;;;;11.42;63.36;99218.95;125534;1104;103483;-73
2021/06/01 05:50:19;;;;;;;16.47;7.47;;;;;;;11.65;63.33;99210.20;125550;1104;102981;-72
2021/06/01 05:52:47;;;;;;;17.47;6.63;;;;;;;11.86;63.20;99210.41;125491;1104;103074;-72
2021/06/01 05:55:16;;;;;;;14.95;5.95;;;;;;;12.07;63.25;99207.95;125526;1104;103456;-72
2021/06/01 05:57:45;;;;;;;13.47;5.73;;;;;;;12.28;63.22;99207.27;125513;1096;103072;-72
2021/06/01 06:00:16;;;;;;;16.07;6.03;;;;;;;12.52;62.90;99220.52;125513;1104;103014;-73
2021/06/01 06:02:44;;;;;;;14.90;6.30;;;;;;;12.73;63.20;99214.44;125510;1104;102999;-73
2021/06/01 06:05:14;;;;;;;17.13;6.40;;;;;;;12.94;63.15;99214.55;125521;1104;103053;-71
2021/06/01 06:07:43;;;;;;;14.03;5.83;;;;;;;13.12;62.84;99212.20;125539;1104;103026;-72
2021/06/01 06:10:13;;;;;;;15.30;6.30;;;;;;;13.28;63.16;99216.31;125587;1104;103528;-72
2021/06/01 06:12:42;;;;;;;25.00;11.07;;;;;;;13.44;63.12;99221.27;125521;1104;103190;-72
2021/06/01 06:15:17;;;;;;;19.17;7.13;;;;;;;13.59;62.90;99216.48;125536;1104;103013;-73
2021/06/01 06:17:57;;;;;;;12.93;5.63;;;;;;;13.76;63.04;99212.39;125584;1104;102990;-72
2021/06/01 06:20:25;;;;;;;14.30;5.77;;;;;;;13.94;62.52;99212.67;125607;1104;101847;-71
2021/06/01 06:22:54;;;;;;;14.07;6.10;;;;;;;14.14;62.80;99211.84;125537;1104;103135;-71
2021/06/01 06:25:22;;;;;;;14.33;5.60;;;;;;;14.37;62.69;99206.32;125516;1096;102991;-69
2021/06/01 06:27:51;;;;;;;12.50;5.67;;;;;;;14.56;62.68;99208.24;125563;1096;102996;-72
2021/06/01 06:30:20;;;;;;;12.97;5.93;;;;;;;14.78;62.77;99217.12;125538;1097;103010;-73
2021/06/01 06:32:48;;;;;;;16.70;6.83;;;;;;;14.97;62.54;99215.47;125550;1104;103139;-73
2021/06/01 06:35:19;;;;;;;15.10;6.47;;;;;;;15.11;62.60;99204.38;125596;1104;103062;-73
2021/06/01 06:37:48;;;;;;;15.73;6.30;;;;;;;15.26;62.47;99212.04;125500;1104;103078;-72
2021/06/01 06:40:16;;;;;;;13.30;5.30;;;;;;;15.41;62.36;99215.16;125574;1104;102981;-73
2021/06/01 06:42:45;;;;;;;16.60;5.60;;;;;;;15.59;62.35;99204.59;125546;1096;103068;-72
2021/06/01 06:45:16;;;;;;;15.47;5.30;;;;;;;15.77;62.37;99215.45;125538;1096;103144;-72
2021/06/01 06:50:21;;;;;;;12.47;5.10;;;;;;;16.33;62.17;99199.56;125508;1096;103096;-72
2021/06/01 06:52:50;;;;;;;11.60;5.30;;;;;;;16.70;62.04;99200.58;125618;1104;103077;-72
2021/06/01 06:55:20;;;;;;;14.70;5.30;;;;;;;17.39;61.03;99201.92;125549;1096;103120;-73
2021/06/01 06:57:49;;;;;;;11.13;4.30;;;;;;;18.51;60.27;99201.47;125617;1104;103056;-73
2021/06/01 07:00:21;;;;;;;11.47;4.47;;;;;;;19.45;60.18;99206.05;125627;1104;102979;-72
2021/06/01 07:02:51;;;;;;;11.50;4.47;;;;;;;19.83;60.89;99192.92;125557;1096;103078;-74
2021/06/01 07:05:22;;;;;;;12.77;4.90;;;;;;;19.95;61.39;99189.92;125584;1096;102982;-75
2021/06/01 07:07:53;;;;;;;12.00;4.63;;;;;;;19.93;61.40;99193.63;125543;1104;102982;-73
2021/06/01 07:10:22;;;;;;;15.03;4.73;;;;;;;20.04;61.34;99194.31;125523;1104;103142;-74
2021/06/01 07:12:51;;;;;;;12.37;4.90;;;;;;;20.51;61.15;99188.16;125535;1104;103070;-72
2021/06/01 07:15:22;;;;;;;16.80;5.03;;;;;;;20.60;61.02;99196.21;125520;1104;103092;-73
2021/06/01 07:17:56;;;;;;;13.47;4.73;;;;;;;20.92;60.62;99195.28;125529;1104;103116;-73
2021/06/01 07:20:30;;;;;;;14.80;4.50;;;;;;;21.33;60.61;99187.97;125447;1104;102984;-74
2021/06/01 07:23:02;;;;;;;10.25;4.50;;;;;;;21.48;59.99;99191.60;125882;1104;103056;-75
2021/06/01 07:25:32;;;;;;;15.00;5.37;;;;;;;21.57;60.22;99189.67;125569;1104;103085;-73
2021/06/01 07:28:01;;;;;;;14.40;4.67;;;;;;;22.16;59.50;99188.21;125540;1104;103133;-73
2021/06/01 07:30:32;;;;;;;8.87;4.50;;;;;;;22.27;59.68;99182.32;125553;1104;103078;-73
2021/06/01 07:33:01;;;;;;;12.63;4.80;;;;;;;22.57;59.46;99187.81;126196;1100;102984;-73
2021/06/01 07:35:30;;;;;;;11.87;4.53;;;;;;;22.93;59.71;99182.64;125573;1099;103023;-73
2021/06/01 07:37:59;;;;;;;10.03;4.10;;;;;;;23.44;58.44;99196.18;125571;1104;103175;-74
2021/06/01 07:40:27;;;;;;;9.90;4.00;;;;;;;23.71;58.37;99191.04;125569;1105;103078;-72
2021/06/01 07:42:56;;;;;;;7.33;4.07;;;;;;;24.41;57.87;99193.09;125512;1104;102983;-73
2021/06/01 07:45:26;;;;;;;8.17;3.60;;;;;;;24.85;57.87;99191.06;125565;1104;103116;-73
2021/06/01 07:47:55;;;;;;;11.93;4.27;;;;;;;25.36;57.14;99187.05;125590;1104;103016;-72
2021/06/01 07:50:24;;;;;;;12.40;4.00;;;;;;;25.88;57.25;99194.70;125556;1104;103569;-73
2021/06/01 07:52:52;;;;;;;7.10;3.80;;;;;;;26.60;56.78;99181.23;125525;1104;103166;-72
2021/06/01 07:55:22;;;;;;;8.93;3.63;;;;;;;26.72;56.78;99180.58;125571;1099;103489;-73
2021/06/01 07:57:51;;;;;;;12.87;4.20;;;;;;;26.53;56.99;99185.04;125560;1104;103120;-73
2021/06/01 08:00:21;;;;;;;8.73;3.90;;;;;;;26.81;56.33;99187.52;125569;1099;102984;-72
2021/06/01 08:02:50;;;;;;;8.30;3.73;;;;;;;27.79;55.72;99187.43;125553;1104;103004;-73
2021/06/01 08:05:20;;;;;;;7.27;3.47;;;;;;;27.68;55.96;99180.79;125544;1097;103043;-73
2021/06/01 08:07:50;;;;;;;11.53;3.70;;;;;;;27.49;55.77;99183.42;125554;1097;103006;-74
2021/06/01 08:10:21;;;;;;;7.37;3.33;;;;;;;26.69;55.57;99178.28;125560;1100;103078;-72
2021/06/01 08:12:53;;;;;;;9.20;3.57;;;;;;;26.17;55.41;99173.55;125567;1099;103019;-74
2021/06/01 08:15:24;;;;;;;9.10;3.73;;;;;;;25.67;55.10;99187.56;125552;1104;102988;-73
2021/06/01 08:17:59;;;;;;;7.40;3.50;;;;;;;25.01;54.43;99183.60;125504;1104;103134;-74
2021/06/01 08:20:36;;;;;;;11.13;3.73;;;;;;;24.46;54.71;99181.61;125547;1104;103087;-73
2021/06/01 08:23:05;;;;;;;9.13;3.43;;;;;;;23.93;54.30;99186.44;125553;1100;103003;-74
2021/06/01 08:25:33;;;;;;;9.37;3.60;;;;;;;23.56;53.64;99182.96;125592;1104;102982;-74
2021/06/01 08:28:02;;;;;;;9.25;3.50;;;;;;;23.10;53.56;99184.09;125540;1104;103080;-74
2021/06/01 08:30:31;;;;;;;8.50;3.47;;;;;;;22.74;52.95;99174.05;125478;1104;103062;-75
2021/06/01 08:33:00;;;;;;;6.70;3.50;;;;;;;22.23;52.44;99175.59;125583;1100;103018;-73
2021/06/01 08:35:28;;;;;;;6.47;3.60;;;;;;;21.81;52.49;99182.41;125547;1104;103000;-73
2021/06/01 08:37:57;;;;;;;7.30;3.70;;;;;;;21.52;52.00;99186.66;125619;1104;103410;-74
2021/06/01 08:40:26;;;;;;;6.83;3.70;;;;;;;21.22;52.21;99181.11;125559;1104;103058;-75
2021/06/01 08:42:54;;;;;;;7.47;3.20;;;;;;;20.88;51.54;99180.43;125495;1104;102990;-73
2021/06/01 08:45:22;;;;;;;5.87;3.30;;;;;;;20.55;51.57;99185.94;125548;1104;102838;-74
2021/06/01 08:47:56;;;;;;;9.70;3.50;;;;;;;20.26;51.27;99190.06;125727;1104;103052;-74
2021/06/01 08:50:24;;;;;;;7.40;3.07;;;;;;;20.12;50.99;99182.65;125532;1104;103077;-74
2021/06/01 08:52:53;;;;;;;6.60;3.20;;;;;;;19.92;50.65;99186.55;125596;1104;102981;-74
2021/06/01 08:55:22;;;;;;;4.53;2.80;;;;;;;19.72;50.66;99177.09;125584;1096;103080;-74
2021/06/01 08:57:50;;;;;;;8.00;2.83;;;;;;;19.54;50.17;99185.34;125627;1104;103016;-74
2021/06/01 09:00:19;;;;;;;8.00;2.83;;;;;;;19.39;49.95;99199.47;125560;1104;103056;-75
2021/06/01 09:03:09;;;;;;;5.40;2.93;;;;;;;19.29;50.09;99191.53;125629;1104;103071;-75
2021/06/01 09:06:05;;;;;;;6.63;2.70;;;;;;;19.19;49.96;99191.66;125559;1104;102981;-74
2021/06/01 09:08:39;;;;;;;6.13;2.77;;;;;;;19.07;49.45;99198.38;125626;1096;103466;-75
2021/06/01 09:11:17;;;;;;;3.87;2.60;;;;;;;19.05;49.48;99184.22;125565;1104;103049;-73
2021/06/01 09:22:35;;;;;;;8.60;2.87;;;;;;;19.77;48.95;99196.29;125497;1096;103053;-73
2021/06/01 09:26:02;;;;;;;6.03;2.63;;;;;;;19.82;48.85;99198.50;125561;1104;103038;-73
2021/06/01 09:28:14;;;;;;;6.70;2.80;;;;;;;19.75;48.76;99188.38;125504;1096;103105;-73
2021/06/01 09:30:58;;;;;;;5.93;2.40;;;;;;;19.71;48.64;99197.81;125556;1104;102980;-72
2021/06/01 09:33:27;;;;;;;7.47;2.60;;;;;;;19.60;48.24;99193.59;125545;1104;104501;-73
2021/06/01 09:35:57;;;;;;;4.60;2.40;;;;;;;19.52;48.24;99195.45;125524;1104;103122;-74
2021/06/01 09:38:28;;;;;;;5.37;2.40;;;;;;;19.37;47.86;99190.70;125540;1104;103467;-73
2021/06/01 09:41:06;;;;;;;6.77;2.20;;;;;;;19.18;48.17;99181.05;125525;1104;103126;-72
2021/06/01 09:43:49;;;;;;;5.00;2.30;;;;;;;19.03;47.51;99180.84;125596;1104;103176;-73
2021/06/01 09:46:29;;;;;;;7.38;2.53;;;;;;;19.02;47.56;99176.46;125522;1104;103445;-73
2021/06/01 09:49:13;;;;;;;5.03;2.40;;;;;;;19.15;47.76;99175.98;125528;1104;103104;-73
2021/06/01 09:51:45;;;;;;;4.97;2.30;;;;;;;19.16;47.39;99178.50;125570;1096;103006;-75
2021/06/01 09:54:56;;;;;;;3.73;2.37;;;;;;;19.26;47.38;99181.08;125630;1104;103192;-72
2021/06/01 09:57:27;;;;;;;4.77;2.30;;;;;;;19.75;47.11;99182.16;125666;1104;103145;-73
2021/06/01 10:00:19;;;;;;;3.57;2.70;;;;;;;19.99;47.35;99173.20;125591;1104;102978;-73
2021/06/01 10:02:53;;;;;;;6.70;2.60;;;;;;;20.23;47.14;99176.91;125532;1104;102981;-73
2021/06/01 10:05:25;;;;;;;6.90;2.95;;;;;;;20.35;47.04;99167.44;125565;1096;103016;-75
2021/06/01 10:07:57;;;;;;;4.55;2.55;;;;;;;20.41;46.89;99176.69;125543;1104;103080;-74
2021/06/01 10:10:29;;;;;;;7.63;2.97;;;;;;;20.36;46.67;99171.82;125571;1104;103111;-75
2021/06/01 10:13:09;;;;;;;4.25;2.35;;;;;;;20.40;46.52;99166.05;125625;1104;103191;-73
2021/06/01 10:15:39;;;;;;;4.37;2.27;;;;;;;20.49;46.68;99156.91;125588;1104;102984;-73
2021/06/01 10:18:10;;;;;;;6.40;3.03;;;;;;;20.58;46.51;99150.46;125617;1104;103010;-75
2021/06/01 10:20:43;;;;;;;8.53;2.73;;;;;;;20.67;46.35;99157.53;125516;1104;103013;-73
2021/06/01 10:23:17;;;;;;;7.60;3.00;;;;;;;20.77;46.25;99159.22;125583;1104;103065;-73
2021/06/01 10:25:46;;;;;;;6.70;2.80;;;;;;;20.76;45.97;99157.50;125550;1096;103061;-73
2021/06/01 10:28:23;;;;;;;8.37;2.70;;;;;;;20.71;46.00;99151.77;125536;1104;103145;-74
2021/06/01 10:30:54;;;;;;;8.03;2.97;;;;;;;20.77;45.87;99153.81;125559;1105;103069;-74
2021/06/01 10:33:27;;;;;;;8.53;2.97;;;;;;;20.84;45.94;99151.23;125564;1104;103097;-74
2021/06/01 10:36:08;;;;;;;5.70;2.80;;;;;;;20.79;45.92;99155.30;125544;1104;102981;-73
2021/06/01 10:52:28;;;;;;;4.53;2.40;;;;;;;20.84;44.90;99148.53;125536;1104;103055;-73
2021/06/01 10:55:10;;;;;;;6.93;3.10;;;;;;;20.87;44.85;99140.07;125457;1097;103139;-74
2021/06/01 10:57:59;;;;;;;4.77;2.40;;;;;;;20.85;44.86;99152.92;125587;1104;103009;-72
2021/06/01 11:03:18;;;;;;;6.70;2.93;;;;;;;20.87;44.73;99145.48;125630;1104;103005;-73
2021/06/01 11:05:59;;;;;;;5.07;2.40;;;;;;;20.89;44.51;99146.14;125577;1104;103077;-74
2021/06/01 11:08:45;;;;;;;6.20;2.80;;;;;;;20.88;44.40;99155.27;125513;1104;103006;-73
2021/06/01 11:11:23;;;;;;;4.90;2.30;;;;;;;20.89;44.48;99146.14;125557;1104;103128;-73
2021/06/01 11:13:55;;;;;;;4.93;2.23;;;;;;;20.91;43.85;99152.22;125481;1096;103016;-73
2021/06/01 11:16:24;;;;;;;4.90;2.50;;;;;;;20.97;44.20;99135.30;125602;1097;103078;-74
2021/06/01 11:19:02;;;;;;;9.80;3.00;;;;;;;21.03;44.46;99134.55;125575;1104;103164;-76
2021/06/01 11:21:41;;;;;;;6.00;2.60;;;;;;;21.18;43.99;99131.09;125524;1097;103126;-74
2021/06/01 11:35:26;;;;;;;9.35;3.25;;;;;;;20.77;43.64;99124.08;125527;1104;103636;-73
2021/06/01 11:38:02;;;;;;;12.50;2.90;;;;;;;20.67;43.65;99135.05;125583;1096;103029;-73
2021/06/01 11:43:06;;;;;;;4.10;2.80;;;;;;;20.57;43.59;99119.05;125599;1104;102981;-73
2021/06/01 11:48:29;;;;;;;6.17;2.77;;;;;;;20.30;43.28;99133.83;125565;1097;103085;-73
2021/06/01 11:51:16;;;;;;;3.90;2.70;;;;;;;20.16;43.25;99133.55;125580;1104;103080;-73
2021/06/01 11:54:08;;;;;;;6.10;2.80;;;;;;;20.00;43.32;99139.80;125550;1104;103060;-74
2021/06/01 11:56:50;;;;;;;7.60;3.00;;;;;;;19.91;43.12;99136.27;125564;1104;103038;-75
2021/06/01 12:19:08;;;;;;;6.07;3.00;;;;;;;20.59;42.78;99129.67;125577;1104;102995;-73
2021/06/01 12:21:47;;;;;;;4.53;2.37;;;;;;;20.57;42.66;99129.03;125562;1104;103083;-75
2021/06/01 12:24:24;;;;;;;9.43;3.17;;;;;;;20.55;42.63;99123.78;125585;1104;103056;-75
2021/06/01 12:32:41;;;;;;;5.23;2.90;;;;;;;20.26;42.40;99132.49;125519;1104;103230;-73
2021/06/01 12:35:37;;;;;;;7.67;2.77;;;;;;;20.21;42.43;99135.72;125496;1100;103212;-73
2021/06/01 12:43:55;;;;;;;6.53;2.83;;;;;;;20.23;42.33;99134.52;125563;1104;103151;-74
2021/06/01 13:20:43;;;;;;;3.63;2.00;;;;;;;20.12;41.41;99121.41;125588;1104;103474;-74
2021/06/01 13:40:24;;;;;;;5.33;2.50;;;;;;;20.19;41.10;99127.77;125554;1104;103013;-78
2021/06/01 13:46:35;;;;;;;4.07;2.20;;;;;;;20.20;41.00;99121.36;125558;1104;103239;-77
2021/06/01 13:49:32;;;;;;;5.87;2.20;;;;;;;20.21;40.94;99117.64;125563;1104;103572;-76
2021/06/01 13:52:52;;;;;;;4.23;2.70;;;;;;;20.26;40.83;99113.59;125553;1104;103229;-76